Time;durP1;ratioP1;P1;durP2;ratioP2;P2;SDS_P1;SDS_P2;PMS_P1;PMS_P2;Temp;Humidity;BMP_temperature;BMP_pressure;BME280_temperature;BME280_humidity;BME280_pressure;Samples;Min_cycle;Max_cycle;Signal;HPM_P1;HPM_P2
2023/07/10 00:00:17;;;;;;;4.90;3.83;;;;;;;;;;5113251;28;20200;-31
2023/07/10 00:02:45;;;;;;;6.68;4.22;;;;;;;;;;5091718;28;20201;-31
2023/07/10 00:05:14;;;;;;;5.57;3.60;;;;;;;;;;5092933;28;20199;-30
2023/07/10 00:07:41;;;;;;;6.13;3.90;;;;;;;;;;5103468;28;20225;-30
2023/07/10 00:10:08;;;;;;;6.18;3.95;;;;;;;;;;5105190;28;20222;-28
2023/07/10 00:12:37;;;;;;;4.38;3.40;;;;;;;;;;5101657;28;20213;-31
2023/07/10 00:15:11;;;;;;;5.78;3.92;;;;;;;;;;5111573;28;20245;-31
2023/07/10 00:17:38;;;;;;;7.00;3.75;;;;;;;;;;5110280;28;20203;-31
2023/07/10 00:22:32;;;;;;;5.45;3.95;;;;;;;;;;5200208;22;20239;-25
2023/07/10 00:24:59;;;;;;;10.20;3.70;;;;;;;;;;5089033;28;20210;-24
2023/07/10 00:27:27;;;;;;;3.83;3.30;;;;;;;;;;5085694;28;20208;-22
2023/07/10 00:29:55;;;;;;;6.07;3.55;;;;;;;;;;5071725;28;20225;-24
2023/07/10 00:32:22;;;;;;;5.43;3.45;;;;;;;;;;5073559;28;20208;-24
2023/07/10 00:34:49;;;;;;;4.75;2.95;;;;;;;;;;5065673;28;20216;-22
2023/07/10 00:37:16;;;;;;;4.90;3.53;;;;;;;;;;5072430;28;20212;-26
2023/07/10 00:39:44;;;;;;;5.38;3.92;;;;;;;;;;5069310;28;20263;-26
2023/07/10 00:42:14;;;;;;;4.05;3.35;;;;;;;;;;5068670;28;20272;-23
2023/07/10 00:44:43;;;;;;;10.65;4.30;;;;;;;;;;5070279;28;20209;-26
2023/07/10 00:47:16;;;;;;;4.78;3.97;;;;;;;;;;5067614;28;20550;-22
2023/07/10 00:49:45;;;;;;;6.70;3.88;;;;;;;;;;5055661;28;20635;-26
2023/07/10 00:52:15;;;;;;;4.35;3.40;;;;;;;;;;5069781;28;20207;-25
2023/07/10 00:54:44;;;;;;;4.93;3.80;;;;;;;;;;5063881;28;20216;-27
2023/07/10 00:57:14;;;;;;;6.15;3.78;;;;;;;;;;5062254;28;20199;-27
2023/07/10 00:59:41;;;;;;;4.68;3.30;;;;;;;;;;5069369;28;20220;-26
2023/07/10 01:02:19;;;;;;;5.22;3.70;;;;;;;;;;5060650;28;20197;-27
2023/07/10 01:04:48;;;;;;;5.88;3.42;;;;;;;;;;5066598;28;20200;-28
2023/07/10 01:07:16;;;;;;;5.78;3.97;;;;;;;;;;5068620;28;20200;-25
2023/07/10 01:09:46;;;;;;;5.25;3.88;;;;;;;;;;5058967;28;20246;-26
2023/07/10 01:12:13;;;;;;;4.97;3.03;;;;;;;;;;5062724;28;20208;-27
2023/07/10 01:14:41;;;;;;;4.53;3.38;;;;;;;;;;5069292;28;20205;-28
2023/07/10 01:17:09;;;;;;;5.43;3.72;;;;;;;;;;5064842;28;20700;-28
2023/07/10 01:19:38;;;;;;;5.28;3.95;;;;;;;;;;5060609;28;20219;-27
2023/07/10 01:22:09;;;;;;;7.05;3.67;;;;;;;;;;5068754;28;20299;-28
2023/07/10 01:24:36;;;;;;;4.22;3.40;;;;;;;;;;5060901;28;20211;-27
2023/07/10 01:27:03;;;;;;;5.95;3.67;;;;;;;;;;5060677;28;20200;-27
2023/07/10 01:29:33;;;;;;;4.45;3.15;;;;;;;;;;5061020;28;20235;-26
2023/07/10 01:32:01;;;;;;;5.22;3.55;;;;;;;;;;5068016;28;20592;-28
2023/07/10 01:34:32;;;;;;;4.10;3.22;;;;;;;;;;5069082;28;20780;-28
2023/07/10 01:36:59;;;;;;;3.85;3.00;;;;;;;;;;5062656;28;20210;-24
2023/07/10 01:39:31;;;;;;;5.35;3.13;;;;;;;;;;5065297;28;20231;-28
2023/07/10 01:41:59;;;;;;;5.03;3.78;;;;;;;;;;5062124;28;20226;-27
2023/07/10 01:44:27;;;;;;;4.30;3.30;;;;;;;;;;5068519;28;20213;-26
2023/07/10 01:46:55;;;;;;;5.03;3.40;;;;;;;;;;5068705;28;20302;-27
2023/07/10 01:49:25;;;;;;;4.47;3.22;;;;;;;;;;5065562;28;20246;-26
2023/07/10 01:51:52;;;;;;;5.32;3.30;;;;;;;;;;5059151;28;20223;-26
2023/07/10 01:54:19;;;;;;;7.00;3.53;;;;;;;;;;5066760;28;20214;-27
2023/07/10 01:56:48;;;;;;;4.45;3.40;;;;;;;;;;5064002;28;20222;-24
2023/07/10 01:59:15;;;;;;;6.60;3.47;;;;;;;;;;5057593;28;20224;-27
2023/07/10 02:01:42;;;;;;;4.28;3.00;;;;;;;;;;5060046;28;20210;-26
2023/07/10 02:04:10;;;;;;;4.65;3.47;;;;;;;;;;5068870;28;20205;-27
2023/07/10 02:06:39;;;;;;;5.88;3.67;;;;;;;;;;5065941;28;20235;-27
2023/07/10 02:09:06;;;;;;;4.03;3.25;;;;;;;;;;5067324;28;20231;-26
2023/07/10 02:11:34;;;;;;;4.55;3.83;;;;;;;;;;5062932;28;20702;-27
2023/07/10 02:14:03;;;;;;;7.30;3.95;;;;;;;;;;5060631;28;20208;-27
2023/07/10 02:16:31;;;;;;;4.28;3.30;;;;;;;;;;5068647;28;20238;-27
2023/07/10 02:18:59;;;;;;;4.75;3.42;;;;;;;;;;5060658;28;20580;-24
2023/07/10 02:21:26;;;;;;;4.85;3.88;;;;;;;;;;5068508;28;20222;-29
2023/07/10 02:23:53;;;;;;;4.10;3.30;;;;;;;;;;5068597;28;20204;-27
2023/07/10 02:26:20;;;;;;;4.35;3.40;;;;;;;;;;5051306;28;20211;-25
2023/07/10 02:28:47;;;;;;;3.50;3.17;;;;;;;;;;5068102;28;20590;-27
2023/07/10 02:31:16;;;;;;;4.53;3.33;;;;;;;;;;5068571;28;20361;-26
2023/07/10 02:33:45;;;;;;;5.53;3.90;;;;;;;;;;5068862;28;20307;-26
2023/07/10 02:36:12;;;;;;;5.43;3.72;;;;;;;;;;5052228;28;20202;-29
2023/07/10 02:38:40;;;;;;;6.40;3.58;;;;;;;;;;5064901;28;20234;-25
2023/07/10 02:41:07;;;;;;;5.50;3.90;;;;;;;;;;5062420;28;20649;-28
2023/07/10 02:43:34;;;;;;;3.70;3.22;;;;;;;;;;5067935;28;20658;-27
2023/07/10 02:46:01;;;;;;;5.03;3.40;;;;;;;;;;5068124;28;20197;-26
2023/07/10 02:48:30;;;;;;;6.15;3.80;;;;;;;;;;5057803;28;20227;-30
2023/07/10 02:50:57;;;;;;;4.60;3.42;;;;;;;;;;5067019;28;20220;-27
2023/07/10 02:53:24;;;;;;;4.35;3.45;;;;;;;;;;5068951;28;20290;-28
2023/07/10 02:55:51;;;;;;;5.47;3.63;;;;;;;;;;5061449;28;20213;-27
2023/07/10 02:58:19;;;;;;;5.20;3.75;;;;;;;;;;5067562;28;20224;-24
2023/07/10 03:00:46;;;;;;;4.63;3.50;;;;;;;;;;5067912;28;20207;-27
2023/07/10 03:03:13;;;;;;;4.13;3.45;;;;;;;;;;5063998;28;20207;-24
2023/07/10 03:05:41;;;;;;;4.50;3.40;;;;;;;;;;5065195;28;20568;-27
2023/07/10 03:08:09;;;;;;;5.30;3.50;;;;;;;;;;5071932;28;20230;-29
2023/07/10 03:10:36;;;;;;;4.28;2.88;;;;;;;;;;5059819;28;20227;-28
2023/07/10 03:13:03;;;;;;;5.15;3.70;;;;;;;;;;5069658;28;20202;-27
2023/07/10 03:15:30;;;;;;;4.28;3.70;;;;;;;;;;5071367;28;20264;-25
2023/07/10 03:17:57;;;;;;;4.70;3.67;;;;;;;;;;5070841;28;20243;-27
2023/07/10 03:20:24;;;;;;;4.60;3.75;;;;;;;;;;5063620;28;20232;-28
2023/07/10 03:22:53;;;;;;;4.53;3.50;;;;;;;;;;5070806;28;20390;-29
2023/07/10 03:25:20;;;;;;;5.47;3.50;;;;;;;;;;5068204;28;20550;-28
2023/07/10 03:27:48;;;;;;;4.68;3.45;;;;;;;;;;5070105;28;20481;-25
2023/07/10 03:30:16;;;;;;;6.45;3.38;;;;;;;;;;5071063;28;20241;-25
2023/07/10 03:32:43;;;;;;;6.72;3.80;;;;;;;;;;5068639;28;20620;-26
2023/07/10 03:35:10;;;;;;;4.07;3.55;;;;;;;;;;5066692;28;20207;-27
2023/07/10 03:37:37;;;;;;;6.35;3.65;;;;;;;;;;5070978;28;20203;-27
2023/07/10 03:40:06;;;;;;;6.13;3.45;;;;;;;;;;5066827;28;20204;-30
2023/07/10 03:42:33;;;;;;;4.07;3.53;;;;;;;;;;5068301;28;20556;-25
2023/07/10 03:45:00;;;;;;;7.15;3.72;;;;;;;;;;5070740;28;20208;-29
2023/07/10 03:47:28;;;;;;;4.50;3.83;;;;;;;;;;5070928;28;20207;-30
2023/07/10 03:49:55;;;;;;;5.07;2.85;;;;;;;;;;5068110;28;20203;-27
2023/07/10 03:52:22;;;;;;;6.55;3.65;;;;;;;;;;5070868;28;20617;-27
2023/07/10 03:54:50;;;;;;;5.05;3.70;;;;;;;;;;5063497;28;20207;-27
2023/07/10 03:57:18;;;;;;;5.75;3.58;;;;;;;;;;5068921;28;20413;-27
2023/07/10 03:59:45;;;;;;;5.30;3.55;;;;;;;;;;5074000;28;20223;-26
2023/07/10 04:02:12;;;;;;;4.82;3.20;;;;;;;;;;5076118;28;20678;-27
2023/07/10 04:04:39;;;;;;;4.97;3.28;;;;;;;;;;5068133;28;20210;-28
2023/07/10 04:07:07;;;;;;;4.47;3.35;;;;;;;;;;5075921;28;20231;-28
2023/07/10 04:09:34;;;;;;;8.50;4.30;;;;;;;;;;5072361;28;20228;-26
2023/07/10 04:12:01;;;;;;;4.68;3.65;;;;;;;;;;5066190;28;20227;-27
2023/07/10 04:14:30;;;;;;;5.60;3.70;;;;;;;;;;5074319;28;20611;-27
2023/07/10 04:16:58;;;;;;;5.25;3.30;;;;;;;;;;5073107;28;20218;-26
2023/07/10 04:19:25;;;;;;;4.45;3.42;;;;;;;;;;5069559;28;20245;-28
2023/07/10 04:21:52;;;;;;;6.55;3.75;;;;;;;;;;5059811;28;20216;-26
2023/07/10 04:24:19;;;;;;;4.20;3.30;;;;;;;;;;5070286;28;20201;-29
2023/07/10 04:26:46;;;;;;;6.00;4.32;;;;;;;;;;5066741;28;20208;-28
2023/07/10 04:29:14;;;;;;;4.30;3.40;;;;;;;;;;5072987;28;20223;-27
2023/07/10 04:31:42;;;;;;;3.35;3.05;;;;;;;;;;5073548;28;20681;-25
2023/07/10 04:34:10;;;;;;;4.47;2.97;;;;;;;;;;5065030;28;20681;-28
2023/07/10 04:36:37;;;;;;;5.90;3.88;;;;;;;;;;5074856;28;20208;-26
2023/07/10 04:39:05;;;;;;;3.92;3.40;;;;;;;;;;5074242;28;20224;-26
2023/07/10 04:41:32;;;;;;;4.38;3.60;;;;;;;;;;5065985;28;20203;-26
2023/07/10 04:43:59;;;;;;;5.97;4.05;;;;;;;;;;5070126;28;20774;-24
2023/07/10 04:46:26;;;;;;;4.57;3.33;;;;;;;;;;5072125;28;20216;-25
2023/07/10 04:48:55;;;;;;;4.60;3.72;;;;;;;;;;5067864;28;20224;-38
2023/07/10 04:51:22;;;;;;;4.65;3.17;;;;;;;;;;5064819;28;20220;-39
2023/07/10 04:53:49;;;;;;;6.50;3.67;;;;;;;;;;5070049;28;20195;-28
2023/07/10 04:56:18;;;;;;;7.25;3.80;;;;;;;;;;5064395;28;20216;-26
2023/07/10 04:58:50;;;;;;;4.30;3.33;;;;;;;;;;5072304;28;20227;-25
2023/07/10 05:01:17;;;;;;;4.72;3.00;;;;;;;;;;5073135;28;20431;-28
2023/07/10 05:03:44;;;;;;;5.93;3.72;;;;;;;;;;5063860;28;20211;-27
2023/07/10 05:06:13;;;;;;;4.82;3.63;;;;;;;;;;5057968;28;20569;-24
2023/07/10 05:08:40;;;;;;;4.05;3.65;;;;;;;;;;5064498;28;20226;-25
2023/07/10 05:11:07;;;;;;;6.25;3.55;;;;;;;;;;5069434;28;20220;-27
2023/07/10 05:13:34;;;;;;;3.85;3.42;;;;;;;;;;5070926;28;20212;-26
2023/07/10 05:16:02;;;;;;;5.68;3.47;;;;;;;;;;5052744;28;20233;-26
2023/07/10 05:18:29;;;;;;;7.07;3.83;;;;;;;;;;5052704;28;20826;-28
2023/07/10 05:20:57;;;;;;;5.40;3.55;;;;;;;;;;5072115;28;20303;-26
2023/07/10 05:23:26;;;;;;;4.32;3.75;;;;;;;;;;5072804;28;20303;-24
2023/07/10 05:25:59;;;;;;;4.15;3.72;;;;;;;;;;5061620;28;20215;-24
2023/07/10 05:28:27;;;;;;;5.53;3.67;;;;;;;;;;5071325;28;20227;-26
2023/07/10 05:30:54;;;;;;;6.18;3.53;;;;;;;;;;5072274;28;20237;-27
2023/07/10 05:33:21;;;;;;;5.53;3.95;;;;;;;;;;5069719;28;20212;-26
2023/07/10 05:35:53;;;;;;;5.85;3.65;;;;;;;;;;5066256;28;20214;-24
2023/07/10 05:38:21;;;;;;;4.53;3.35;;;;;;;;;;5071982;28;20703;-25
2023/07/10 05:40:49;;;;;;;5.45;3.80;;;;;;;;;;5067377;28;20599;-26
2023/07/10 05:43:16;;;;;;;6.35;3.80;;;;;;;;;;5072227;28;20195;-24
2023/07/10 05:45:43;;;;;;;6.35;3.65;;;;;;;;;;5069833;28;20203;-27
2023/07/10 05:48:11;;;;;;;6.10;3.90;;;;;;;;;;5070443;28;20231;-25
2023/07/10 05:50:38;;;;;;;4.55;3.90;;;;;;;;;;5069443;28;20202;-26
2023/07/10 05:53:06;;;;;;;3.53;3.17;;;;;;;;;;5072619;28;20204;-23
2023/07/10 05:55:33;;;;;;;6.20;3.92;;;;;;;;;;5063138;28;20208;-26
2023/07/10 05:58:02;;;;;;;8.45;4.15;;;;;;;;;;5071242;28;20950;-26
2023/07/10 06:00:29;;;;;;;5.22;3.85;;;;;;;;;;5071895;28;20204;-27
2023/07/10 06:02:56;;;;;;;7.18;3.97;;;;;;;;;;5072153;28;20206;-25
2023/07/10 06:05:32;;;;;;;5.22;3.47;;;;;;;;;;5059798;28;20207;-26
2023/07/10 06:08:00;;;;;;;7.57;3.40;;;;;;;;;;5070928;28;20284;-27
2023/07/10 06:10:27;;;;;;;4.80;3.72;;;;;;;;;;5064204;28;20670;-25
2023/07/10 06:12:54;;;;;;;3.75;3.28;;;;;;;;;;5071637;28;20234;-28
2023/07/10 06:15:22;;;;;;;5.32;4.80;;;;;;;;;;5072282;28;20315;-26
2023/07/10 06:17:49;;;;;;;4.05;3.45;;;;;;;;;;5067060;28;20581;-25
2023/07/10 06:20:17;;;;;;;4.78;3.92;;;;;;;;;;5068572;28;20215;-26
2023/07/10 06:22:44;;;;;;;6.25;3.50;;;;;;;;;;5069452;28;20565;-24
2023/07/10 06:25:11;;;;;;;8.13;4.10;;;;;;;;;;5060428;28;20200;-28
2023/07/10 06:27:38;;;;;;;6.65;4.07;;;;;;;;;;5062844;28;20379;-27
2023/07/10 06:30:06;;;;;;;8.52;3.60;;;;;;;;;;5067086;28;20281;-29
2023/07/10 06:35:06;;;;;;;10.45;3.65;;;;;;;;;;5069133;28;20205;-31
2023/07/10 06:37:53;;;;;;;5.38;3.42;;;;;;;;;;5072091;28;20189;-33
2023/07/10 06:40:22;;;;;;;5.18;3.83;;;;;;;;;;5067066;28;20205;-29
2023/07/10 06:42:54;;;;;;;6.80;3.80;;;;;;;;;;5064476;28;20209;-32
2023/07/10 06:45:25;;;;;;;5.15;3.67;;;;;;;;;;5062223;28;20196;-29
2023/07/10 06:48:01;;;;;;;5.60;4.13;;;;;;;;;;5056180;28;20218;-30
2023/07/10 06:50:36;;;;;;;4.90;3.53;;;;;;;;;;5056835;28;20197;-32
2023/07/10 06:53:10;;;;;;;4.57;4.07;;;;;;;;;;5058636;28;20220;-30
2023/07/10 06:55:47;;;;;;;5.85;3.78;;;;;;;;;;5064822;28;20255;-31
2023/07/10 06:58:18;;;;;;;5.70;3.83;;;;;;;;;;5056490;28;20227;-32
2023/07/10 07:00:45;;;;;;;7.32;3.95;;;;;;;;;;5070120;28;20263;-32
2023/07/10 07:03:32;;;;;;;8.65;4.30;;;;;;;;;;5054982;28;20206;-30
2023/07/10 07:06:01;;;;;;;4.60;3.58;;;;;;;;;;5064469;28;20280;-27
2023/07/10 07:08:29;;;;;;;4.72;3.85;;;;;;;;;;5062830;28;20381;-27
2023/07/10 07:10:58;;;;;;;6.53;3.70;;;;;;;;;;5056338;28;20664;-32
2023/07/10 07:13:28;;;;;;;6.00;3.28;;;;;;;;;;5055332;28;20209;-30
2023/07/10 07:16:00;;;;;;;5.88;3.92;;;;;;;;;;5054862;28;20568;-28
2023/07/10 07:18:33;;;;;;;4.85;3.42;;;;;;;;;;5052467;28;20233;-33
2023/07/10 07:21:02;;;;;;;5.93;3.83;;;;;;;;;;5070793;28;20225;-29
2023/07/10 07:23:30;;;;;;;6.05;3.72;;;;;;;;;;5063405;28;20206;-30
2023/07/10 07:25:58;;;;;;;13.07;8.13;;;;;;;;;;5053488;28;20205;-29
2023/07/10 07:28:30;;;;;;;7.75;4.18;;;;;;;;;;5052207;28;20226;-31
2023/07/10 07:31:04;;;;;;;5.53;4.10;;;;;;;;;;5072769;28;20260;-28
2023/07/10 07:33:36;;;;;;;6.65;4.85;;;;;;;;;;5086652;28;20242;-31
2023/07/10 07:36:05;;;;;;;8.23;3.72;;;;;;;;;;5100707;28;20224;-29
2023/07/10 07:38:32;;;;;;;5.80;3.90;;;;;;;;;;5094106;28;20227;-30
2023/07/10 07:40:59;;;;;;;6.50;3.63;;;;;;;;;;5091991;28;20212;-34
2023/07/10 07:43:30;;;;;;;6.15;3.97;;;;;;;;;;5110103;28;20204;-28
2023/07/10 07:46:02;;;;;;;5.82;4.32;;;;;;;;;;5113464;28;20188;-29
2023/07/10 07:48:29;;;;;;;4.60;3.45;;;;;;;;;;5108911;28;20314;-30
2023/07/10 07:51:03;;;;;;;6.65;4.00;;;;;;;;;;5107445;28;20204;-31
2023/07/10 07:53:39;;;;;;;4.25;3.85;;;;;;;;;;5091701;28;20311;-33
2023/07/10 07:56:10;;;;;;;4.40;3.60;;;;;;;;;;5094244;28;20253;-30
2023/07/10 07:58:42;;;;;;;4.82;3.90;;;;;;;;;;5102497;28;20227;-31
2023/07/10 08:01:10;;;;;;;6.78;3.92;;;;;;;;;;5092705;28;20209;-32
2023/07/10 08:03:37;;;;;;;5.93;3.85;;;;;;;;;;5090117;28;20223;-31
2023/07/10 08:06:05;;;;;;;5.72;4.28;;;;;;;;;;5102045;28;20195;-31
2023/07/10 08:08:34;;;;;;;6.20;3.80;;;;;;;;;;5103170;28;20222;-31
2023/07/10 08:11:01;;;;;;;6.30;3.78;;;;;;;;;;5102856;28;20208;-30
2023/07/10 08:13:29;;;;;;;8.48;4.70;;;;;;;;;;5108383;28;20227;-28
2023/07/10 08:15:56;;;;;;;6.05;3.97;;;;;;;;;;5112356;28;20256;-29
2023/07/10 08:18:25;;;;;;;4.82;3.83;;;;;;;;;;5112202;28;20334;-29
2023/07/10 08:20:54;;;;;;;5.45;3.80;;;;;;;;;;5105000;28;20196;-28
2023/07/10 08:23:22;;;;;;;5.40;3.97;;;;;;;;;;5093716;28;20200;-29
2023/07/10 08:25:52;;;;;;;7.38;4.20;;;;;;;;;;5094541;28;20272;-31
2023/07/10 08:30:53;;;;;;;5.20;3.83;;;;;;;;;;5086591;28;20257;-26
2023/07/10 08:33:20;;;;;;;7.35;3.95;;;;;;;;;;5084008;28;20277;-30
2023/07/10 08:35:54;;;;;;;4.70;4.00;;;;;;;;;;5090408;28;20200;-29
2023/07/10 08:38:21;;;;;;;5.53;4.30;;;;;;;;;;5079497;28;20286;-30
2023/07/10 08:40:53;;;;;;;6.10;4.00;;;;;;;;;;5069723;28;20670;-29
2023/07/10 08:43:27;;;;;;;8.68;3.88;;;;;;;;;;5074607;28;20338;-30
2023/07/10 08:46:12;;;;;;;5.78;4.32;;;;;;;;;;5072505;28;20712;-31
2023/07/10 08:48:40;;;;;;;7.22;4.07;;;;;;;;;;5066767;28;20229;-32
2023/07/10 08:51:24;;;;;;;5.70;4.28;;;;;;;;;;5061848;28;20615;-31
2023/07/10 08:54:09;;;;;;;7.32;4.60;;;;;;;;;;5072797;28;20209;-30
2023/07/10 08:56:48;;;;;;;5.30;4.28;;;;;;;;;;5066414;28;20209;-30
2023/07/10 08:59:23;;;;;;;4.07;3.60;;;;;;;;;;5067117;28;20308;-29
2023/07/10 09:01:50;;;;;;;6.07;4.00;;;;;;;;;;5070887;28;20251;-29
2023/07/10 09:04:21;;;;;;;5.20;3.72;;;;;;;;;;5068834;28;20255;-30
2023/07/10 09:06:56;;;;;;;4.50;3.70;;;;;;;;;;5066257;28;20205;-30
2023/07/10 09:09:35;;;;;;;4.53;3.58;;;;;;;;;;5070807;28;20217;-29
2023/07/10 09:12:13;;;;;;;5.05;3.65;;;;;;;;;;5062710;28;20220;-33
2023/07/10 09:14:49;;;;;;;3.78;3.47;;;;;;;;;;5072700;28;20228;-30
2023/07/10 09:17:24;;;;;;;6.43;4.10;;;;;;;;;;5072881;28;20635;-31
2023/07/10 09:19:59;;;;;;;6.00;4.22;;;;;;;;;;5070199;28;20296;-28
2023/07/10 09:22:37;;;;;;;5.20;3.63;;;;;;;;;;5071156;28;20594;-30
2023/07/10 09:25:12;;;;;;;6.18;3.10;;;;;;;;;;5067043;28;20208;-30
2023/07/10 09:27:56;;;;;;;3.78;3.35;;;;;;;;;;5068381;28;20559;-29
2023/07/10 09:30:32;;;;;;;4.68;3.65;;;;;;;;;;5072428;28;20633;-28
2023/07/10 09:33:09;;;;;;;4.90;3.40;;;;;;;;;;5072541;28;20248;-29
2023/07/10 09:35:37;;;;;;;5.07;3.47;;;;;;;;;;5058431;28;20243;-28
2023/07/10 09:38:22;;;;;;;5.18;3.30;;;;;;;;;;5058989;28;20621;-30
2023/07/10 09:40:56;;;;;;;5.18;3.40;;;;;;;;;;5066799;28;20209;-30
2023/07/10 09:43:26;;;;;;;4.85;3.20;;;;;;;;;;5063798;28;20197;-34
2023/07/10 09:46:07;;;;;;;6.15;3.75;;;;;;;;;;5067587;28;20209;-31
2023/07/10 09:48:36;;;;;;;4.07;3.60;;;;;;;;;;5061201;28;20231;-29
2023/07/10 09:51:14;;;;;;;4.90;3.50;;;;;;;;;;5053508;28;20279;-32
2023/07/10 09:54:06;;;;;;;4.00;3.50;;;;;;;;;;5059566;28;20308;-31
2023/07/10 09:56:38;;;;;;;4.38;3.55;;;;;;;;;;5066420;28;20728;-29
2023/07/10 09:59:30;;;;;;;4.35;3.17;;;;;;;;;;5063417;28;20224;-28
2023/07/10 10:02:21;;;;;;;4.57;3.78;;;;;;;;;;5067839;28;20207;-30
2023/07/10 10:05:07;;;;;;;4.70;3.50;;;;;;;;;;5059740;28;20680;-31
2023/07/10 10:07:56;;;;;;;4.25;3.40;;;;;;;;;;5067773;28;20683;-30
2023/07/10 10:10:29;;;;;;;7.07;3.75;;;;;;;;;;5058684;28;20324;-30
2023/07/10 10:13:17;;;;;;;6.20;3.72;;;;;;;;;;5062555;28;20224;-30
2023/07/10 10:15:52;;;;;;;5.50;3.67;;;;;;;;;;5069859;28;20219;-34
2023/07/10 10:18:34;;;;;;;4.65;3.75;;;;;;;;;;5059674;28;20221;-29
2023/07/10 10:21:07;;;;;;;5.05;3.67;;;;;;;;;;5061013;28;20666;-29
2023/07/10 10:23:35;;;;;;;4.13;3.55;;;;;;;;;;5068541;28;20638;-31
2023/07/10 10:26:18;;;;;;;5.55;4.15;;;;;;;;;;5061017;28;20205;-32
2023/07/10 10:28:48;;;;;;;5.20;3.65;;;;;;;;;;5065635;28;20319;-29
2023/07/10 10:31:20;;;;;;;5.20;4.15;;;;;;;;;;5064312;28;20296;-31
2023/07/10 10:33:54;;;;;;;4.57;3.80;;;;;;;;;;5053450;28;20234;-30
2023/07/10 10:36:28;;;;;;;5.90;4.55;;;;;;;;;;5064870;28;20205;-32
2023/07/10 10:38:58;;;;;;;5.80;4.20;;;;;;;;;;5070752;28;20734;-31
2023/07/10 10:41:40;;;;;;;5.93;4.13;;;;;;;;;;5060258;28;20201;-30
2023/07/10 10:44:11;;;;;;;5.60;4.05;;;;;;;;;;5063978;28;20632;-31
2023/07/10 10:46:49;;;;;;;4.60;3.80;;;;;;;;;;5071519;28;20219;-34
2023/07/10 10:49:29;;;;;;;7.03;4.03;;;;;;;;;;5067907;28;20225;-34
2023/07/10 10:52:06;;;;;;;5.10;3.70;;;;;;;;;;5069987;28;20643;-31
2023/07/10 10:54:36;;;;;;;4.80;4.00;;;;;;;;;;5070746;28;20296;-32
2023/07/10 10:57:17;;;;;;;4.15;3.75;;;;;;;;;;5063101;28;20551;-33
2023/07/10 10:59:55;;;;;;;4.35;3.40;;;;;;;;;;5066736;28;20225;-32
2023/07/10 11:02:31;;;;;;;7.68;4.60;;;;;;;;;;5063323;28;20215;-29
2023/07/10 11:05:12;;;;;;;6.32;3.72;;;;;;;;;;5072037;28;20356;-32
2023/07/10 11:07:54;;;;;;;4.93;4.45;;;;;;;;;;5065150;28;20213;-28
2023/07/10 11:10:32;;;;;;;5.35;3.88;;;;;;;;;;5062439;28;20270;-29
2023/07/10 11:13:29;;;;;;;6.00;4.28;;;;;;;;;;5071442;28;20217;-30
2023/07/10 11:16:31;;;;;;;5.70;4.18;;;;;;;;;;5071965;28;20236;-32
2023/07/10 11:19:06;;;;;;;5.55;3.83;;;;;;;;;;5062813;28;20280;-30
2023/07/10 11:21:45;;;;;;;4.65;3.70;;;;;;;;;;5061179;28;20205;-30
2023/07/10 11:24:23;;;;;;;4.88;4.38;;;;;;;;;;5071009;28;20715;-33
2023/07/10 11:27:04;;;;;;;5.40;4.13;;;;;;;;;;5070907;28;20209;-29
2023/07/10 11:29:43;;;;;;;7.07;4.55;;;;;;;;;;5073323;28;20760;-29
2023/07/10 11:32:22;;;;;;;6.60;3.88;;;;;;;;;;5056250;28;20209;-29
2023/07/10 11:34:55;;;;;;;7.82;4.43;;;;;;;;;;5073714;28;20228;-33
2023/07/10 11:37:46;;;;;;;5.10;4.57;;;;;;;;;;5069249;28;20278;-31
2023/07/10 11:40:41;;;;;;;4.57;4.15;;;;;;;;;;5070844;28;20205;-30
2023/07/10 11:43:41;;;;;;;8.75;4.60;;;;;;;;;;5074534;28;20197;-31
2023/07/10 11:46:25;;;;;;;7.03;4.60;;;;;;;;;;5075219;28;20229;-29
2023/07/10 11:49:02;;;;;;;4.80;3.97;;;;;;;;;;5071187;28;20975;-29
2023/07/10 11:51:35;;;;;;;5.07;4.57;;;;;;;;;;5068431;28;20204;-29
2023/07/10 11:54:22;;;;;;;6.07;3.83;;;;;;;;;;5058672;28;20761;-28
2023/07/10 11:57:06;;;;;;;5.53;3.80;;;;;;;;;;5025950;28;20210;-28
2023/07/10 11:59:36;;;;;;;5.65;3.97;;;;;;;;;;5068228;28;20717;-28
2023/07/10 12:02:13;;;;;;;5.03;4.57;;;;;;;;;;5069551;28;20209;-30
2023/07/10 12:05:00;;;;;;;4.53;4.13;;;;;;;;;;5066623;28;20292;-31
2023/07/10 12:08:01;;;;;;;4.68;4.18;;;;;;;;;;5072882;28;20209;-31
2023/07/10 12:10:32;;;;;;;5.85;4.32;;;;;;;;;;5062338;28;20201;-30
2023/07/10 12:13:15;;;;;;;5.45;4.38;;;;;;;;;;5072746;28;20229;-29
2023/07/10 12:15:42;;;;;;;7.45;4.88;;;;;;;;;;5071817;28;20308;-30
2023/07/10 12:18:11;;;;;;;9.77;4.47;;;;;;;;;;5052785;28;20560;-30
2023/07/10 12:20:43;;;;;;;7.25;4.38;;;;;;;;;;5063774;28;20213;-31
2023/07/10 12:23:12;;;;;;;5.22;4.07;;;;;;;;;;5073526;28;20194;-32
2023/07/10 12:25:52;;;;;;;6.70;4.60;;;;;;;;;;5072731;28;20201;-32
2023/07/10 12:28:21;;;;;;;5.47;4.00;;;;;;;;;;5072541;28;20228;-28
2023/07/10 12:30:50;;;;;;;4.47;4.07;;;;;;;;;;5074090;28;20211;-31
2023/07/10 12:33:30;;;;;;;5.10;3.90;;;;;;;;;;5065710;28;20226;-31
2023/07/10 12:36:02;;;;;;;5.30;4.50;;;;;;;;;;5072386;28;20201;-33
2023/07/10 12:41:06;;;;;;;4.47;4.05;;;;;;;;;;5080643;28;20205;-23
2023/07/10 12:43:35;;;;;;;5.93;4.20;;;;;;;;;;5075957;28;20201;-25
2023/07/10 12:46:04;;;;;;;4.78;4.30;;;;;;;;;;5081372;28;20196;-22
2023/07/10 12:48:33;;;;;;;8.60;4.60;;;;;;;;;;5072615;28;20225;-23
2023/07/10 12:51:02;;;;;;;5.35;4.10;;;;;;;;;;5065886;28;20193;-25
2023/07/10 12:53:32;;;;;;;12.93;4.78;;;;;;;;;;5070115;28;20229;-24
2023/07/10 12:56:05;;;;;;;5.63;4.53;;;;;;;;;;5059360;28;20201;-36
2023/07/10 12:58:33;;;;;;;6.75;4.22;;;;;;;;;;5065912;28;20225;-25
2023/07/10 13:01:02;;;;;;;6.05;4.20;;;;;;;;;;5069963;28;20201;-24
2023/07/10 13:03:30;;;;;;;6.03;4.32;;;;;;;;;;5065868;28;20197;-26
2023/07/10 13:05:59;;;;;;;5.45;4.22;;;;;;;;;;5058612;28;20201;-24
2023/07/10 13:08:38;;;;;;;5.63;3.92;;;;;;;;;;5064253;28;20423;-26
2023/07/10 13:11:05;;;;;;;4.40;3.95;;;;;;;;;;5061886;28;20207;-25
2023/07/10 13:13:37;;;;;;;7.38;4.22;;;;;;;;;;5067595;28;20231;-26
2023/07/10 13:16:04;;;;;;;6.22;4.35;;;;;;;;;;5069160;28;20220;-25
2023/07/10 13:18:33;;;;;;;5.50;3.90;;;;;;;;;;5065731;28;20221;-25
2023/07/10 13:21:00;;;;;;;5.43;4.05;;;;;;;;;;5062484;28;20197;-24
2023/07/10 13:23:27;;;;;;;7.38;4.15;;;;;;;;;;5068497;28;20675;-26
2023/07/10 13:25:55;;;;;;;9.10;4.65;;;;;;;;;;5061336;28;20202;-26
2023/07/10 13:28:24;;;;;;;5.70;3.67;;;;;;;;;;5063874;28;20225;-28
2023/07/10 13:30:53;;;;;;;3.92;3.63;;;;;;;;;;5057298;28;20208;-25
2023/07/10 13:33:21;;;;;;;7.32;4.60;;;;;;;;;;5066347;28;20229;-28
2023/07/10 13:35:49;;;;;;;4.47;4.07;;;;;;;;;;5053927;28;20221;-28
2023/07/10 13:38:16;;;;;;;6.60;4.10;;;;;;;;;;5062752;28;20229;-27
2023/07/10 13:40:44;;;;;;;5.75;4.20;;;;;;;;;;5080829;28;20209;-25
2023/07/10 13:43:14;;;;;;;5.93;4.05;;;;;;;;;;5092059;28;20293;-24
2023/07/10 13:45:42;;;;;;;5.47;3.95;;;;;;;;;;5079651;28;20232;-27
2023/07/10 13:48:12;;;;;;;5.15;3.85;;;;;;;;;;5068561;28;20259;-26
2023/07/10 13:50:40;;;;;;;6.63;3.58;;;;;;;;;;5070151;28;20219;-29
2023/07/10 13:53:11;;;;;;;8.13;4.45;;;;;;;;;;5080555;28;20300;-27
2023/07/10 13:55:38;;;;;;;4.65;3.90;;;;;;;;;;5078263;28;20200;-27
2023/07/10 13:58:06;;;;;;;5.45;3.83;;;;;;;;;;5081784;28;20282;-27
2023/07/10 14:00:36;;;;;;;5.65;4.15;;;;;;;;;;5080120;28;20205;-29
2023/07/10 14:03:03;;;;;;;6.30;4.13;;;;;;;;;;5081150;28;20196;-25
2023/07/10 14:05:31;;;;;;;4.35;3.85;;;;;;;;;;5089110;28;20267;-26
2023/07/10 14:07:59;;;;;;;6.65;4.05;;;;;;;;;;5087241;28;20227;-26
2023/07/10 14:10:26;;;;;;;4.10;3.70;;;;;;;;;;5072696;28;20648;-27
2023/07/10 14:12:53;;;;;;;3.47;3.17;;;;;;;;;;5086160;28;20208;-29
2023/07/10 14:15:21;;;;;;;3.83;2.90;;;;;;;;;;5071345;28;20223;-27
2023/07/10 14:17:48;;;;;;;4.03;2.92;;;;;;;;;;5068759;28;20229;-27
2023/07/10 14:20:17;;;;;;;4.28;3.53;;;;;;;;;;5076646;28;20206;-25
2023/07/10 14:22:45;;;;;;;4.60;3.67;;;;;;;;;;5080307;28;20204;-25
2023/07/10 14:25:17;;;;;;;5.40;3.63;;;;;;;;;;5078265;28;20193;-28
2023/07/10 14:27:45;;;;;;;5.20;3.10;;;;;;;;;;5082144;28;20262;-25
2023/07/10 14:30:17;;;;;;;3.38;3.08;;;;;;;;;;5088702;28;20219;-25
2023/07/10 14:32:44;;;;;;;4.35;3.67;;;;;;;;;;5089240;28;20197;-27
2023/07/10 14:35:16;;;;;;;3.42;3.13;;;;;;;;;;5079413;28;20225;-27
2023/07/10 14:37:43;;;;;;;5.22;2.97;;;;;;;;;;5080175;28;20260;-26
2023/07/10 14:40:13;;;;;;;4.95;3.70;;;;;;;;;;5083152;28;20217;-29
2023/07/10 14:42:40;;;;;;;4.70;3.17;;;;;;;;;;5083960;28;20202;-26
2023/07/10 14:45:08;;;;;;;7.22;3.28;;;;;;;;;;5089135;28;20206;-27
2023/07/10 14:47:36;;;;;;;8.15;3.90;;;;;;;;;;5084980;28;20216;-35
2023/07/10 14:50:05;;;;;;;3.70;3.40;;;;;;;;;;5086379;28;20210;-34
2023/07/10 14:52:33;;;;;;;7.97;4.00;;;;;;;;;;5089127;28;20254;-35
2023/07/10 14:55:03;;;;;;;5.63;3.70;;;;;;;;;;5086353;28;20220;-34
2023/07/10 14:57:32;;;;;;;4.40;4.00;;;;;;;;;;5078664;28;20205;-35
2023/07/10 15:00:00;;;;;;;4.85;3.40;;;;;;;;;;5092720;28;20196;-37
2023/07/10 15:02:28;;;;;;;4.90;3.45;;;;;;;;;;5097372;28;20223;-30
2023/07/10 15:04:55;;;;;;;3.90;3.50;;;;;;;;;;5093806;28;20201;-33
2023/07/10 15:07:23;;;;;;;6.75;4.28;;;;;;;;;;5096618;28;20200;-32
2023/07/10 15:09:51;;;;;;;4.47;3.50;;;;;;;;;;5089894;28;20291;-36
2023/07/10 15:12:19;;;;;;;5.38;3.78;;;;;;;;;;5091399;28;20204;-35
2023/07/10 15:14:48;;;;;;;5.05;4.47;;;;;;;;;;5091913;28;20311;-37